Terminal Aerodrome Forecast
Issued by NWS Cleveland, OH

Home | Current Version | Previous Version | Graphics & Text | Print | Product List | Glossary On
Versions: 1 2 3 4 5 6 7 8 9 10 11 12 13 14 15 16
000
FTUS41 KCLE 270248 AAA
TAFCAK
TAF AMD
KCAK 270248Z 2703/2724 22010G20KT 5SM -TSRA BKN060CB OVC120
      TEMPO 2703/2705 2SM -TSRA OVC035CB
     FM270500 20010KT P6SM BKN080
     FM271000 20008KT 4SM BR SCT004
     FM271400 22012G22KT P6SM SCT015
     FM271600 22015G25KT P6SM BKN040
     FM271900 24015G25KT P6SM BKN050
      TEMPO 2722/2724 3SM -TSRA OVC035CB=

USA.gov is the U.S. government's official web portal to all federal, state and local government web resources and services.